Glen Ogle, United Kingdom
Current Conditions -  °F | °C
As of 3:50 PM on Sunday 21 Dec 2014 (Local Time) from EGPF Reporting Station
Light Rain Light Rain  
Wind Chill: 11°   Ceiling: 400
Heat Index: 11°   Visibility: 1.2mi
Dew Point: 10°   Wind: 23mph
Humidity: 94%   Direction: 230°SW
Pressure: 29.71"   Gusts: NA
Location:  56.42°N, 4.32°W
Report Text: EGPF 211550Z AUTO 23020KT 2000 -RA BKN004/// //////TCU 11/10 Q1006 RERA
Loading
Personal Weather Stations






























Interactive Weather Map New forecast layout! Learn more

10-Day Weather Forecast

Advertisements
Track Severe Weather on mobile